Portada
METAR-TAF:

METAR-TAF

Aeropuertos :

Aeropuerto de Madrid-Barajas

Madrid, España

latitud: 40-27N, longitud: 003-33W, altitud: 609 m

Observación

El informe se hizo hace 32 minutos, a las 01:00 UTC
Viento 2 kt del oeste-noroeste
Temperatura 2°C
Humedad 100%
Presión 1031 hPa
Visibilidad: 8000 m

METAR: LEMD 100100Z 29002KT 8000 NSC 02/02 Q1031 NOSIG

Hora: 02:32 (01:32 UTC)

Pronóstico

El informe se hizo hace 2 horas y 32 minutos, a las 23:00 UTC
Pronóstico válido del 10 a las 00 UTC al 11 a las 06 UTC
Viento 3 kt con dirección variable
Visibilidad 10 km o más
sin nubes por debajo de 1500 m y sin presencia de cumulonimbus.
Probabilidad 30% :
Temporalmente
del 10 a las 00 UTC al 10 a las 08 UTC
Visibilidad: 3000 m
neblina

TAF: LEMD 092300Z 1000/1106 VRB03KT CAVOK TX16/1015Z TN01/1106Z PROB30 TEMPO 1000/1008 3000 BR

Observaciones y pronósticos meteorológicos de más de 4000 aeropuertos (mensajes METAR y TAF).

Los puntos amarillos y rojos representan las estaciones disponibles.

Ponga el ratón en el punto deseado para ver el nombre de la estación.

Haga clic para ver las observaciones y los pronósticos meteorológicos.

Para cambiar el mapa : haga clic en los botones verdes con una cruz de color negro para hacer un zoom, en el botón verde con un guión para alejar o en las flechas verdes para mapas adyacentes.


METAR-TAF: